Portada
METAR-TAF:

METAR-TAF

Aeropuertos :

Noshahr, Irán

latitud: 36-39-48N, longitud: 051-27-53E, altitud: 0 m

Observación

El informe se hizo hace 1 hora y 2 minutos, a las 15:00 UTC
Viento 6 kt del oeste
Temperatura 11°C
Humedad 87%
Presión 1023 hPa
Visibilidad: 8000 m
Cielo nuboso a una altura de 1800 ft
Escasas nubes a una altura de 2000 ft, Cumulonimbus.
Cielo cubierto a una altura de 8000 ft

METAR: OINN 181500Z 26006KT 8000 BKN018 FEW020CB OVC080 11/09 Q1023

Hora: 19:32 (16:02 UTC)


TAF: falta

Observaciones y pronósticos meteorológicos de más de 4000 aeropuertos (mensajes METAR y TAF).

Los puntos amarillos y rojos representan las estaciones disponibles.

Ponga el ratón en el punto deseado para ver el nombre de la estación.

Haga clic para ver las observaciones y los pronósticos meteorológicos.

Para cambiar el mapa : haga clic en los botones verdes con una cruz de color negro para hacer un zoom, en el botón verde con un guión para alejar o en las flechas verdes para mapas adyacentes.


METAR-TAF: